Crowder, OK

9:09 PM CDT on March 28, 2017 (GMT -0500)
Arrowhead Estates | | Change Station

Elev 682 ft 35.17 °N, 95.60 °W | Updated 5 minutes ago

Mostly Cloudy
Mostly Cloudy
71.5 °F
Feels Like 73 °F
N
3.0
Wind Variable Wind from SE

Today
High -- | Low -- °F
--% Chance of Precip.
Yesterday
High -- | Low -- °F
Precip. -- in
Pressure 29.73 in
Visibility 10.0 miles
Clouds Mostly Cloudy 9000 ft
Heat Index 73 °F
Dew Point 63 °F
Humidity 75%
Rainfall 0.00 in
Snow Depth Not available.
7:14 AM 7:41 PM
New Moon, 1% visible
METAR KMLC 290153Z AUTO 11009G18KT 10SM BKN090 22/16 A2975 RMK AO2 SLP068 T02220161
Pressure 29.73 in
Visibility 10.0 miles
Clouds Mostly Cloudy 9000 ft
Heat Index 73 °F
Dew Point 63 °F
Humidity 75%
Rainfall 0.00 in
Snow Depth Not available.
7:14 AM 7:41 PM
New Moon, 1% visible
METAR KMLC 290153Z AUTO 11009G18KT 10SM BKN090 22/16 A2975 RMK AO2 SLP068 T02220161

Get Severe Weather Alerts

Thanks for signing up!

Be on the lookout for a verification email in your inbox.

You'll start receiving the daily forecast at 8 AM.

×

10-Day Weather Forecast

Almanac

Astronomy

Mar. 28, 2017 Rise Set
Actual Time
Civil Twilight
Nautical Twilight
Astronomical Twilight
Moon
Length of Visible Light
Length of Day
Tomorrow will be .
, % of the Moon is Illuminated

Today's Extremes

State Highs State Lows

Community

WunderPhotos

Upload Photos

1,962,540 photos uploaded!

WunderBlog® & News

Nearby

Air Quality

  Air Quality AQ Index Pollutant
Not available.

Snow Depth

Station Depth Elevation

Earthquake Activity

City Distance Mag. Time & Date
Minimum magnitude displayed is 2.5.

Earthquake Activity

City Distance Mag. Time & Date
Minimum magnitude displayed is 2.5.

Coastal Water Temperatures

Place Temperature

Stations

Nearby Weather Stations

Station Location Temp. Windchill Dew Point Humidity Wind Precip. Elev Updated Type
                   

Watches & Warnings

There are currently no watches in effect.